createdAt,value
2023-02-13T00:00:03.028Z,5.49
2023-02-13T00:05:02.468Z,5.55
2023-02-13T00:10:02.303Z,5.58
2023-02-13T00:15:03.119Z,5.48
2023-02-13T00:20:03.078Z,5.46
2023-02-13T00:25:02.203Z,5.5
2023-02-13T00:30:02.382Z,5.46
2023-02-13T00:35:02.989Z,5.45
2023-02-13T00:40:02.694Z,5.43
2023-02-13T00:45:02.443Z,5.37
2023-02-13T00:50:03.080Z,5.41
2023-02-13T00:55:03.308Z,5.5
2023-02-13T01:00:02.599Z,5.56
2023-02-13T01:05:02.283Z,5.49
2023-02-13T01:10:03.044Z,5.52
2023-02-13T01:15:02.894Z,5.52
2023-02-13T01:20:02.598Z,5.52
2023-02-13T01:25:02.625Z,5.56
2023-02-13T01:30:02.381Z,5.58
2023-02-13T01:35:02.336Z,5.6
2023-02-13T01:40:03.192Z,5.62
2023-02-13T01:45:02.930Z,5.58
2023-02-13T01:50:02.557Z,5.58
2023-02-13T01:55:02.715Z,5.49
2023-02-13T02:00:03.094Z,5.48
2023-02-13T02:05:02.978Z,5.41
2023-02-13T02:10:02.886Z,5.39
2023-02-13T02:15:03.226Z,5.4
2023-02-13T02:20:03.209Z,5.38
2023-02-13T02:25:02.714Z,5.34
2023-02-13T02:30:02.436Z,5.29
2023-02-13T02:35:02.527Z,5.35
2023-02-13T02:40:02.769Z,5.35
2023-02-13T02:45:02.614Z,5.28
2023-02-13T02:50:02.640Z,5.25
2023-02-13T02:55:03.059Z,5.25
2023-02-13T03:00:03.250Z,5.22
2023-02-13T03:05:02.917Z,5.22
2023-02-13T03:10:02.663Z,5.15
2023-02-13T03:15:02.342Z,5.08
2023-02-13T03:20:03.142Z,5.08
2023-02-13T03:25:02.860Z,5.04
2023-02-13T03:30:02.698Z,5.09
2023-02-13T03:35:02.392Z,5.07
2023-02-13T03:40:02.251Z,5.01
2023-02-13T03:45:03.165Z,4.98
2023-02-13T03:50:02.905Z,4.97
2023-02-13T03:55:03.721Z,4.93
2023-02-13T04:00:02.700Z,4.84
2023-02-13T04:05:02.370Z,4.82
2023-02-13T04:10:02.246Z,4.88
2023-02-13T04:15:03.050Z,4.83
2023-02-13T04:20:02.720Z,4.83
2023-02-13T04:25:02.448Z,4.86
2023-02-13T04:30:03.144Z,4.9
2023-02-13T04:35:02.735Z,4.9
2023-02-13T04:40:02.852Z,4.95
2023-02-13T04:45:02.635Z,5
2023-02-13T04:50:02.476Z,5
2023-02-13T04:55:03.819Z,4.91
2023-02-13T05:00:03.044Z,4.82
2023-02-13T05:05:02.692Z,4.78
2023-02-13T05:10:02.643Z,4.75
2023-02-13T05:15:02.555Z,4.77
2023-02-13T05:20:02.623Z,4.72
2023-02-13T05:25:02.677Z,4.73
2023-02-13T05:30:02.331Z,4.69
2023-02-13T05:35:04.491Z,4.72
2023-02-13T05:40:02.876Z,4.75
2023-02-13T05:45:02.638Z,4.71
2023-02-13T05:50:02.577Z,4.72
2023-02-13T05:55:04.135Z,4.78
2023-02-13T06:00:02.447Z,4.88
2023-02-13T06:05:03.015Z,4.85
2023-02-13T06:10:02.869Z,4.8
2023-02-13T06:15:02.590Z,4.82
2023-02-13T06:20:02.458Z,4.75
2023-02-13T06:25:02.566Z,4.67
2023-02-13T06:30:02.285Z,4.66
2023-02-13T06:35:05.255Z,4.76
2023-02-13T06:40:02.835Z,4.79
2023-02-13T06:45:03.010Z,4.74
2023-02-13T06:50:02.789Z,4.84
2023-02-13T06:55:03.501Z,4.89
2023-02-13T07:00:03.048Z,4.92
2023-02-13T07:05:02.316Z,4.93
2023-02-13T07:10:03.036Z,4.95
2023-02-13T07:15:02.748Z,4.97
2023-02-13T07:20:02.640Z,4.95
2023-02-13T07:25:02.321Z,4.93
2023-02-13T07:30:02.357Z,4.98
2023-02-13T07:35:02.761Z,4.99
2023-02-13T07:40:04.644Z,5.07
2023-02-13T07:45:03.170Z,5.11
2023-02-13T07:50:02.811Z,5.14
2023-02-13T07:55:03.157Z,5.2
2023-02-13T08:00:02.688Z,5.23
2023-02-13T08:05:02.327Z,5.28
2023-02-13T08:10:02.610Z,5.32
2023-02-13T08:15:02.478Z,5.36
2023-02-13T08:20:02.196Z,5.41
2023-02-13T08:25:03.127Z,5.28
2023-02-13T08:30:02.860Z,5.37
2023-02-13T08:35:02.759Z,5.46
2023-02-13T08:40:02.577Z,5.52
2023-02-13T08:45:02.339Z,5.8
2023-02-13T08:50:02.353Z,6.33
2023-02-13T08:55:03.885Z,6.44
2023-02-13T09:00:02.925Z,6.25
2023-02-13T09:05:02.627Z,6.1
2023-02-13T09:10:02.341Z,6.18
2023-02-13T09:15:02.451Z,6.04
2023-02-13T09:20:03.113Z,6.24
2023-02-13T09:25:03.019Z,6.19
2023-02-13T09:30:02.732Z,6.31
2023-02-13T09:35:02.666Z,6.15
2023-02-13T09:40:02.635Z,6.36
2023-02-13T09:45:03.352Z,6.41
2023-02-13T09:50:02.879Z,6.3
2023-02-13T09:55:03.388Z,6.35
2023-02-13T10:00:02.460Z,6.37
2023-02-13T10:05:03.223Z,6.27
2023-02-13T10:10:02.921Z,6.29
2023-02-13T10:15:02.744Z,6.52
2023-02-13T10:20:02.479Z,6.53
2023-02-13T10:25:02.208Z,7.63
2023-02-13T10:30:03.062Z,7.21
2023-02-13T10:35:03.086Z,6.74
2023-02-13T10:40:02.760Z,6.98
2023-02-13T10:45:02.539Z,6.76
2023-02-13T10:50:02.578Z,6.6
2023-02-13T10:55:03.340Z,6.41
2023-02-13T11:00:03.201Z,6.4
2023-02-13T11:05:02.942Z,6.39
2023-02-13T11:10:02.667Z,6.41
2023-02-13T11:15:02.374Z,6.51
2023-02-13T11:20:02.271Z,6.54
2023-02-13T11:25:02.907Z,6.59
2023-02-13T11:30:02.894Z,6.65
2023-02-13T11:35:02.811Z,6.47
2023-02-13T11:40:02.517Z,6.58
2023-02-13T11:45:02.300Z,6.63
2023-02-13T11:50:02.415Z,6.68
2023-02-13T11:55:06.015Z,6.64
2023-02-13T12:00:02.945Z,6.87
2023-02-13T12:05:02.561Z,7.07
2023-02-13T12:10:02.334Z,6.99
2023-02-13T12:15:03.056Z,6.94
2023-02-13T12:20:02.879Z,6.99
2023-02-13T12:25:02.582Z,7.01
2023-02-13T12:30:02.381Z,6.96
2023-02-13T12:35:03.232Z,6.9
2023-02-13T12:40:02.818Z,6.83
2023-02-13T12:45:02.512Z,6.91
2023-02-13T12:50:03.163Z,6.91
2023-02-13T12:55:03.430Z,6.89
2023-02-13T13:00:02.479Z,6.83
2023-02-13T13:05:03.214Z,6.85
2023-02-13T13:10:02.976Z,6.81
2023-02-13T13:15:02.671Z,6.82
2023-02-13T13:20:02.617Z,6.84
2023-02-13T13:25:02.287Z,6.8
2023-02-13T13:30:03.208Z,6.8
2023-02-13T13:35:02.978Z,6.83
2023-02-13T13:40:03.029Z,6.8
2023-02-13T13:45:02.813Z,6.88
2023-02-13T13:50:02.886Z,6.81
2023-02-13T13:55:03.191Z,6.86
2023-02-13T14:00:02.364Z,6.85
2023-02-13T14:05:02.581Z,6.91
2023-02-13T14:10:02.318Z,6.88
2023-02-13T14:15:03.139Z,6.88
2023-02-13T14:20:05.324Z,6.8
2023-02-13T14:25:03.213Z,6.73
2023-02-13T14:30:02.930Z,6.69
2023-02-13T14:35:03.075Z,6.62
2023-02-13T14:40:03.001Z,6.56
2023-02-13T14:45:03.062Z,6.55
2023-02-13T14:50:02.452Z,6.57
2023-02-13T14:55:03.650Z,6.55
2023-02-13T15:00:03.079Z,6.55
2023-02-13T15:05:02.821Z,6.53
2023-02-13T15:10:03.129Z,6.47
2023-02-13T15:15:02.652Z,6.41
2023-02-13T15:20:02.456Z,6.38
2023-02-13T15:25:02.257Z,6.33
2023-02-13T15:30:03.089Z,6.28
2023-02-13T15:35:02.794Z,6.24
2023-02-13T15:40:02.614Z,6.2
2023-02-13T15:45:02.373Z,6.12
2023-02-13T15:50:03.059Z,6.08
2023-02-13T15:55:03.245Z,6.02
2023-02-13T16:00:02.654Z,5.96
2023-02-13T16:05:02.324Z,5.97
2023-02-13T16:10:02.728Z,5.93
2023-02-13T16:15:02.285Z,5.84
2023-02-13T16:20:03.083Z,5.78
2023-02-13T16:25:04.143Z,5.7
2023-02-13T16:30:02.967Z,5.61
2023-02-13T16:35:02.555Z,5.58
2023-02-13T16:40:02.722Z,5.48
2023-02-13T16:45:02.947Z,5.49
2023-02-13T16:50:03.218Z,5.49
2023-02-13T16:55:03.787Z,5.56
2023-02-13T17:00:02.567Z,5.53
2023-02-13T17:05:03.097Z,5.46
2023-02-13T17:10:03.001Z,5.43
2023-02-13T17:15:02.802Z,5.57
2023-02-13T17:20:02.754Z,5.5
2023-02-13T17:25:02.450Z,5.45
2023-02-13T17:30:02.928Z,5.49
2023-02-13T17:35:02.318Z,5.45
2023-02-13T17:40:03.118Z,5.41
2023-02-13T17:45:03.074Z,5.54
2023-02-13T17:50:09.546Z,5.5
2023-02-13T17:55:03.278Z,5.56
2023-02-13T18:00:02.453Z,5.78
2023-02-13T18:05:03.086Z,5.67
2023-02-13T18:10:03.029Z,5.48
2023-02-13T18:15:02.772Z,5.35
2023-02-13T18:20:02.590Z,5.26
2023-02-13T18:25:03.166Z,5.43
2023-02-13T18:30:02.910Z,5.52
2023-02-13T18:35:02.721Z,5.39
2023-02-13T18:40:02.433Z,5.19
2023-02-13T18:45:03.301Z,4.96
2023-02-13T18:50:02.891Z,4.91
2023-02-13T18:55:03.096Z,4.85
2023-02-13T19:00:02.375Z,4.91
2023-02-13T19:05:02.611Z,4.85
2023-02-13T19:10:02.270Z,4.79
2023-02-13T19:15:03.129Z,4.8
2023-02-13T19:20:02.870Z,4.88
2023-02-13T19:25:02.632Z,4.85
2023-02-13T19:30:02.379Z,4.87
2023-02-13T19:35:03.125Z,4.89
2023-02-13T19:40:02.913Z,4.85
2023-02-13T19:45:03.063Z,4.79
2023-02-13T19:50:02.743Z,4.69
2023-02-13T19:55:03.314Z,4.67
2023-02-13T20:00:03.294Z,4.75
2023-02-13T20:05:02.868Z,4.73
2023-02-13T20:10:02.667Z,4.75
2023-02-13T20:15:02.444Z,4.83
2023-02-13T20:20:02.459Z,4.76
2023-02-13T20:25:02.213Z,4.82
2023-02-13T20:30:06.749Z,4.85
2023-02-13T20:35:02.861Z,4.83
2023-02-13T20:40:02.682Z,4.81
2023-02-13T20:45:02.535Z,4.82
2023-02-13T20:50:02.335Z,4.93
2023-02-13T20:55:03.557Z,4.84
2023-02-13T21:00:02.824Z,4.89
2023-02-13T21:05:02.438Z,4.91
2023-02-13T21:10:03.182Z,4.85
2023-02-13T21:15:03.278Z,4.77
2023-02-13T21:20:02.609Z,4.69
2023-02-13T21:25:02.524Z,4.85
2023-02-13T21:30:02.419Z,4.69
2023-02-13T21:35:02.933Z,4.55
2023-02-13T21:40:02.677Z,4.56
2023-02-13T21:45:02.445Z,4.56
2023-02-13T21:50:02.535Z,4.55
2023-02-13T21:55:03.766Z,4.43
2023-02-13T22:00:03.041Z,4.5
2023-02-13T22:05:02.842Z,4.47
2023-02-13T22:10:02.601Z,4.45
2023-02-13T22:15:02.655Z,4.5
2023-02-13T22:20:02.643Z,4.56
2023-02-13T22:25:02.321Z,4.48
2023-02-13T22:30:02.418Z,4.4
2023-02-13T22:35:03.041Z,4.53
2023-02-13T22:40:02.915Z,4.63
2023-02-13T22:45:02.707Z,4.62
2023-02-13T22:50:02.440Z,4.67
2023-02-13T22:55:03.615Z,4.58
2023-02-13T23:00:03.002Z,4.56
2023-02-13T23:05:02.896Z,4.58
2023-02-13T23:10:02.584Z,4.5
2023-02-13T23:15:02.542Z,4.33
2023-02-13T23:20:02.676Z,4.21
2023-02-13T23:25:02.372Z,4.18
2023-02-13T23:30:02.334Z,4.15
2023-02-13T23:35:02.994Z,4.18
2023-02-13T23:40:02.916Z,4.2
2023-02-13T23:45:02.848Z,4.28
2023-02-13T23:50:02.263Z,4.36
2023-02-13T23:55:03.601Z,4.13
